Weather at Eugene F. Kranz Toledo Express Airport

Public forecast

Using degrees Fahrenheit for public forecast. Weather courtesy of forecast.io.

Current aviation weather report (METAR) for Eugene F. Kranz Toledo Express Airport

2024/05/28 23:52 (retrieved 36 minutes ago)

KTOL 282352Z 33003KT 10SM FEW080 FEW095 SCT120 18/13 A2994 RMK AO2 SLPNO 60008 T01830133 10233 20161 51001

Closest aviation forecast (TAF) to Eugene F. Kranz Toledo Express Airport

Closest forecast is Selfridge Air National Guard Base Airport, 75.3 nm (139.5 km) NE.

2024/05/28 20:06 Ammendment (retrieved 4 hours ago)

TAF AMD KMTC 282000Z 2820/3001 32012KT 9999 SCT050 OVC080 QNH2987INS TEMPO 2820/2823 9000 -TSRA BKN016CB BECMG 2823/2824 VRB06KT 8000 -SHRA SCT040 OVC055 QNH2992INS BECMG 2907/2908 VRB06KT 9000 BR SCT020 BKN030 QNH2999INS BECMG 2914/2915 01010G18KT 9999 NSW SCT020 BKN025 OVC040 510063 QNH3007INS BECMG 3000/3001 01009KT 9999 SKC QNH3015INS TX19/2820Z TN12/2912Z LAST NO AMDS AFT 2903 NEXT 2911